This is the latest recevied weather packets stored in our database for station/object VA2IEI-13. If no packets are shown the sender has not sent any weather packets the latest 10 day(s).
| Time | Temp. | Humidity | Pressure | Rain* | Wind** | Luminosity | Snow |
|---|---|---|---|---|---|---|---|
| 1777535421 | 10.56° C | 81% | 1010.4 hPa | 0 mm | - | - | - |
| 1777530118 | 11.11° C | 79% | 1011.1 hPa | 0 mm | - | - | - |
| 1777528262 | 11.11° C | 79% | 1011.3 hPa | 0 mm | - | - | - |
| 1777526432 | 11.67° C | 79% | 1011.7 hPa | 0 mm | - | - | - |
| 1777523474 | 12.22° C | 76% | 1011.9 hPa | 0 mm | - | - | - |
| 1777522286 | 12.78° C | 75% | 1011.9 hPa | 0 mm | - | - | - |
| 1777519843 | 12.78° C | 73% | 1011.9 hPa | 0 mm | - | - | - |
| 1777519233 | 13.33° C | 72% | 1011.8 hPa | 0 mm | - | - | - |
| 1777518629 | 13.33° C | 71% | 1011.8 hPa | 0 mm | - | - | - |
| 1777514465 | 13.33° C | 62% | 1011.8 hPa | 0 mm | - | - | - |
| 1777512045 | 14.44° C | 59% | 1011.6 hPa | 0 mm | - | - | - |
| 1777511438 | 15° C | 61% | 1011.7 hPa | 0 mm | - | - | - |
| 1777510833 | 15° C | 60% | 1011.5 hPa | 0 mm | - | - | - |
| 1777509020 | 15.56° C | 58% | 1011.2 hPa | 0 mm | - | - | - |
| 1777485044 | 21.11° C | 39% | 1013.4 hPa | 0 mm | - | - | - |
| 1777483808 | 21.11° C | 40% | 1013.7 hPa | 0 mm | - | - | - |
| 1777482667 | 20° C | 40% | 1013.8 hPa | 0 mm | - | - | - |
| 1777477225 | 18.89° C | 42% | 1015.2 hPa | 0 mm | - | - | - |
| 1777476016 | 18.89° C | 42% | 1015.4 hPa | 0 mm | - | - | - |
| 1777471847 | 16.11° C | 46% | 1016.4 hPa | 0 mm | - | - | - |
| 1777420843 | 18.33° C | 42% | 1017.2 hPa | 0 mm | - | - | - |
| 1777420211 | 18.33° C | 43% | 1017.2 hPa | 0 mm | - | - | - |
| 1777419603 | 17.78° C | 47% | 1017.1 hPa | 0 mm | - | - | - |
| 1777413081 | 16.11° C | 56% | 1017.6 hPa | 0 mm | - | - | - |
| 1777407620 | 17.78° C | 51% | 1018.2 hPa | 0 mm | - | - | - |
* Rain latest hour (hover to see other rain measurements)
** Current wind speed in m/s (hover to see current wind gust speed)